createdAt,value
2018-04-10T00:01:56.214Z,3.75
2018-04-10T00:04:24.247Z,3.55
2018-04-10T00:06:52.253Z,4.43
2018-04-10T00:09:20.260Z,3.83
2018-04-10T00:11:48.314Z,4.05
2018-04-10T00:14:16.339Z,4.05
2018-04-10T00:16:44.359Z,3.87
2018-04-10T00:19:13.139Z,3.92
2018-04-10T00:21:41.169Z,4.10
2018-04-10T00:24:09.215Z,3.83
2018-04-10T00:26:38.001Z,3.80
2018-04-10T00:29:06.077Z,3.78
2018-04-10T00:31:34.076Z,3.70
2018-04-10T00:34:02.097Z,3.80
2018-04-10T00:36:30.095Z,3.97
2018-04-10T00:38:58.131Z,3.85
2018-04-10T00:41:26.145Z,3.67
2018-04-10T00:43:54.166Z,3.45
2018-04-10T00:46:22.186Z,3.75
2018-04-10T00:48:50.194Z,3.25
2018-04-10T00:51:18.308Z,4.00
2018-04-10T00:53:46.304Z,4.18
2018-04-10T00:56:14.302Z,3.60
2018-04-10T00:58:42.330Z,3.62
2018-04-10T01:01:10.399Z,3.33
2018-04-10T01:03:38.452Z,3.60
2018-04-10T01:06:07.248Z,3.58
2018-04-10T01:08:36.041Z,4.00
2018-04-10T01:11:09.509Z,3.75
2018-04-10T01:13:37.914Z,3.70
2018-04-10T01:16:08.657Z,3.60
2018-04-10T01:18:38.485Z,3.75
2018-04-10T01:21:06.523Z,3.70
2018-04-10T01:23:38.378Z,3.95
2018-04-10T01:26:06.685Z,3.70
2018-04-10T01:28:34.720Z,4.22
2018-04-10T01:31:05.581Z,4.37
2018-04-10T01:33:37.523Z,3.65
2018-04-10T01:36:27.035Z,3.70
2018-04-10T01:38:55.072Z,4.47
2018-04-10T01:41:23.124Z,4.15
2018-04-10T01:43:51.189Z,4.20
2018-04-10T01:46:19.220Z,4.55
2018-04-10T01:48:48.011Z,4.78
2018-04-10T01:51:16.027Z,4.72
2018-04-10T01:53:44.071Z,4.20
2018-04-10T01:56:12.088Z,4.53
2018-04-10T01:58:40.107Z,4.60
2018-04-10T02:01:08.175Z,4.60
2018-04-10T02:03:36.205Z,4.78
2018-04-10T02:06:04.221Z,5.53
2018-04-10T02:08:32.230Z,4.90
2018-04-10T02:11:00.265Z,5.47
2018-04-10T02:13:28.296Z,5.70
2018-04-10T02:15:56.294Z,5.60
2018-04-10T02:18:24.316Z,5.70
2018-04-10T02:20:52.331Z,6.80
2018-04-10T02:23:20.349Z,6.32
2018-04-10T02:25:49.373Z,6.00
2018-04-10T02:28:17.513Z,6.60
2018-04-10T02:30:45.528Z,6.10
2018-04-10T02:33:13.518Z,6.35
2018-04-10T02:35:41.614Z,6.53
2018-04-10T02:38:09.641Z,6.20
2018-04-10T02:40:37.685Z,7.15
2018-04-10T02:43:05.715Z,6.97
2018-04-10T02:45:33.733Z,7.93
2018-04-10T02:48:01.777Z,7.12
2018-04-10T02:50:29.817Z,8.05
2018-04-10T02:52:57.819Z,9.57
2018-04-10T02:55:25.847Z,9.07
2018-04-10T02:57:53.870Z,8.30
2018-04-10T03:00:22.305Z,9.50
2018-04-10T03:02:51.119Z,9.55
2018-04-10T03:05:19.181Z,9.32
2018-04-10T03:07:47.944Z,9.23
2018-04-10T03:10:16.735Z,8.50
2018-04-10T03:12:44.764Z,9.18
2018-04-10T03:15:12.822Z,9.82
2018-04-10T03:17:40.832Z,9.63
2018-04-10T03:20:08.871Z,10.20
2018-04-10T03:22:36.886Z,10.85
2018-04-10T03:25:04.913Z,9.93
2018-04-10T03:27:32.978Z,9.30
2018-04-10T03:30:01.054Z,10.02
2018-04-10T03:32:29.154Z,12.35
2018-04-10T03:34:57.179Z,12.75
2018-04-10T03:37:25.205Z,11.18
2018-04-10T03:39:53.226Z,9.35
2018-04-10T03:42:21.255Z,8.43
2018-04-10T03:44:49.284Z,8.50
2018-04-10T03:47:17.318Z,8.35
2018-04-10T03:49:45.368Z,7.10
2018-04-10T03:52:13.396Z,6.45
2018-04-10T03:54:41.411Z,6.53
2018-04-10T03:57:09.420Z,5.90
2018-04-10T03:59:37.434Z,5.45
2018-04-10T04:02:05.470Z,5.15
2018-04-10T04:04:34.244Z,5.57
2018-04-10T04:07:02.270Z,5.57
2018-04-10T04:09:30.297Z,5.05
2018-04-10T04:11:59.065Z,4.82
2018-04-10T04:14:28.601Z,4.90
2018-04-10T04:16:56.631Z,5.35
2018-04-10T04:19:24.646Z,4.60
2018-04-10T04:21:53.431Z,4.80
2018-04-10T04:24:21.439Z,4.60
2018-04-10T04:26:49.487Z,4.80
2018-04-10T04:29:17.511Z,4.70
2018-04-10T04:31:45.553Z,5.10
2018-04-10T04:34:13.571Z,5.03
2018-04-10T04:36:41.575Z,4.50
2018-04-10T04:39:09.609Z,5.12
2018-04-10T04:41:38.389Z,3.92
2018-04-10T04:44:06.400Z,4.78
2018-04-10T04:46:34.443Z,5.03
2018-04-10T04:49:03.216Z,5.40
2018-04-10T04:51:31.245Z,4.90
2018-04-10T04:53:59.262Z,4.95
2018-04-10T04:56:27.275Z,4.45
2018-04-10T04:58:55.308Z,5.07
2018-04-10T05:01:23.364Z,4.75
2018-04-10T05:03:51.426Z,5.72
2018-04-10T05:06:19.458Z,13.55
2018-04-10T05:08:47.522Z,20.30
2018-04-10T05:11:15.544Z,11.73
2018-04-10T05:13:43.588Z,8.68
2018-04-10T05:16:11.661Z,7.85
2018-04-10T05:18:39.707Z,6.60
2018-04-10T05:21:07.734Z,7.37
2018-04-10T05:23:35.756Z,6.25
2018-04-10T05:26:03.761Z,6.57
2018-04-10T05:28:31.811Z,6.30
2018-04-10T05:30:59.910Z,5.50
2018-04-10T05:33:28.059Z,5.37
2018-04-10T05:35:56.075Z,6.03
2018-04-10T05:38:24.093Z,6.03
2018-04-10T05:40:52.165Z,5.28
2018-04-10T05:43:20.167Z,5.25
2018-04-10T05:45:48.204Z,5.68
2018-04-10T05:48:16.235Z,5.65
2018-04-10T05:50:44.269Z,5.80
2018-04-10T05:53:12.311Z,6.10
2018-04-10T05:55:40.324Z,5.68
2018-04-10T05:58:08.371Z,5.35
2018-04-10T06:00:36.371Z,5.03
2018-04-10T06:03:04.736Z,4.65
2018-04-10T06:05:32.793Z,10.63
2018-04-10T06:08:00.824Z,7.40
2018-04-10T06:10:28.847Z,7.45
2018-04-10T06:12:56.890Z,7.60
2018-04-10T06:15:24.919Z,5.50
2018-04-10T06:17:52.940Z,5.55
2018-04-10T06:20:21.003Z,5.40
2018-04-10T06:22:49.793Z,4.82
2018-04-10T06:25:17.823Z,4.32
2018-04-10T06:27:45.829Z,4.35
2018-04-10T06:30:13.881Z,4.28
2018-04-10T06:32:41.921Z,7.00
2018-04-10T06:35:09.959Z,9.57
2018-04-10T06:37:38.013Z,7.72
2018-04-10T06:40:06.021Z,6.12
2018-04-10T06:42:34.072Z,5.57
2018-04-10T06:45:02.856Z,4.90
2018-04-10T06:47:30.950Z,4.22
2018-04-10T06:49:59.003Z,3.78
2018-04-10T06:52:27.043Z,4.87
2018-04-10T06:54:55.081Z,3.80
2018-04-10T06:57:23.103Z,3.22
2018-04-10T06:59:51.143Z,3.20
2018-04-10T07:02:19.176Z,3.35
2018-04-10T07:04:47.201Z,3.10
2018-04-10T07:07:15.223Z,3.10
2018-04-10T07:09:43.275Z,3.62
2018-04-10T07:12:12.047Z,3.20
2018-04-10T07:14:40.067Z,3.83
2018-04-10T07:17:08.115Z,4.40
2018-04-10T07:19:36.122Z,4.05
2018-04-10T07:22:04.170Z,4.12
2018-04-10T07:24:32.204Z,3.85
2018-04-10T07:27:00.238Z,4.05
2018-04-10T07:29:28.302Z,4.00
2018-04-10T07:31:56.378Z,4.18
2018-04-10T07:34:24.411Z,3.78
2018-04-10T07:36:52.442Z,3.42
2018-04-10T07:39:20.494Z,3.47
2018-04-10T07:44:30.448Z,3.30
2018-04-10T07:46:58.503Z,3.30
2018-04-10T07:49:26.517Z,3.40
2018-04-10T07:51:54.542Z,3.65
2018-04-10T07:54:22.576Z,3.05
2018-04-10T07:56:50.578Z,3.85
2018-04-10T07:59:18.653Z,3.67
2018-04-10T08:01:46.693Z,3.35
2018-04-10T08:04:14.718Z,7.32
2018-04-10T08:06:42.775Z,6.40
2018-04-10T08:09:10.797Z,5.87
2018-04-10T08:11:38.821Z,5.65
2018-04-10T08:14:06.855Z,5.72
2018-04-10T08:16:34.899Z,5.97
2018-04-10T08:19:02.916Z,5.80
2018-04-10T08:21:30.945Z,5.60
2018-04-10T08:23:58.980Z,5.35
2018-04-10T08:26:27.060Z,5.25
2018-04-10T08:28:55.060Z,5.18
2018-04-10T08:31:23.088Z,5.37
2018-04-10T08:33:51.161Z,8.27
2018-04-10T08:36:19.177Z,7.60
2018-04-10T08:38:47.192Z,14.15
2018-04-10T08:41:16.025Z,10.75
2018-04-10T08:43:44.019Z,8.73
2018-04-10T08:46:12.054Z,9.63
2018-04-10T08:48:40.094Z,9.48
2018-04-10T08:51:08.132Z,7.72
2018-04-10T08:53:36.993Z,6.80
2018-04-10T08:56:05.015Z,7.78
2018-04-10T08:58:33.034Z,6.82
2018-04-10T09:01:01.084Z,6.00
2018-04-10T09:03:29.170Z,6.55
2018-04-10T09:05:57.203Z,5.85
2018-04-10T09:08:25.236Z,6.00
2018-04-10T09:10:53.242Z,5.60
2018-04-10T09:13:21.330Z,5.60
2018-04-10T09:15:49.349Z,5.37
2018-04-10T09:18:17.432Z,4.65
2018-04-10T09:20:45.452Z,4.80
2018-04-10T09:23:14.206Z,5.35
2018-04-10T09:25:42.216Z,5.15
2018-04-10T09:28:10.233Z,4.85
2018-04-10T09:30:38.289Z,4.62
2018-04-10T09:33:06.296Z,4.12
2018-04-10T09:35:34.358Z,3.65
2018-04-10T09:38:02.366Z,4.28
2018-04-10T09:40:31.150Z,3.45
2018-04-10T09:42:59.188Z,4.10
2018-04-10T09:45:27.201Z,4.10
2018-04-10T09:47:55.725Z,3.67
2018-04-10T09:50:24.507Z,3.35
2018-04-10T09:52:52.521Z,3.55
2018-04-10T09:55:20.615Z,3.72
2018-04-10T09:57:48.634Z,3.50
2018-04-10T10:00:16.680Z,3.60
2018-04-10T10:02:44.699Z,3.28
2018-04-10T10:05:12.726Z,3.40
2018-04-10T10:07:40.768Z,3.30
2018-04-10T10:10:08.798Z,2.87
2018-04-10T10:12:36.818Z,3.00
2018-04-10T10:15:05.577Z,2.67
2018-04-10T10:17:33.596Z,2.53
2018-04-10T10:20:01.638Z,2.92
2018-04-10T10:22:30.489Z,2.95
2018-04-10T10:24:58.495Z,3.00
2018-04-10T10:27:26.559Z,2.67
2018-04-10T10:29:54.563Z,3.30
2018-04-10T10:32:22.600Z,2.80
2018-04-10T10:34:50.598Z,2.60
2018-04-10T10:37:18.650Z,2.40
2018-04-10T10:39:46.670Z,2.40
2018-04-10T10:42:14.694Z,2.28
2018-04-10T10:44:42.738Z,2.40
2018-04-10T10:47:10.767Z,1.98
2018-04-10T10:49:38.788Z,2.10
2018-04-10T10:52:06.807Z,2.15
2018-04-10T10:54:34.811Z,2.15
2018-04-10T10:57:02.879Z,2.10
2018-04-10T10:59:30.895Z,2.10
2018-04-10T11:01:58.926Z,2.12
2018-04-10T11:04:26.938Z,2.30
2018-04-10T11:06:55.779Z,2.10
2018-04-10T11:09:23.790Z,1.90
2018-04-10T11:11:51.796Z,2.08
2018-04-10T11:14:20.615Z,2.28
2018-04-10T11:16:48.665Z,1.87
2018-04-10T11:19:16.672Z,2.30
2018-04-10T11:21:44.679Z,2.47
2018-04-10T11:24:12.699Z,2.72
2018-04-10T11:26:40.760Z,2.08
2018-04-10T11:29:08.759Z,2.33
2018-04-10T11:31:36.781Z,2.60
2018-04-10T11:34:04.797Z,2.60
2018-04-10T11:36:32.781Z,2.45
2018-04-10T11:39:00.855Z,2.05
2018-04-10T11:41:28.853Z,2.42
2018-04-10T11:43:56.844Z,2.10
2018-04-10T11:46:24.867Z,1.90
2018-04-10T11:48:54.407Z,2.20
2018-04-10T11:51:22.441Z,1.87
2018-04-10T11:53:51.374Z,1.92
2018-04-10T11:56:19.390Z,2.00
2018-04-10T11:58:47.426Z,1.80
2018-04-10T12:01:15.434Z,2.20
2018-04-10T12:03:43.473Z,1.60
2018-04-10T12:06:11.472Z,1.90
2018-04-10T12:08:39.502Z,1.80
2018-04-10T12:11:07.524Z,2.10
2018-04-10T12:13:35.538Z,2.45
2018-04-10T12:16:03.579Z,2.03
2018-04-10T12:18:31.572Z,2.15
2018-04-10T12:21:00.409Z,2.20
2018-04-10T12:23:28.432Z,2.40
2018-04-10T12:25:56.454Z,2.20
2018-04-10T12:28:24.480Z,2.10
2018-04-10T12:30:52.686Z,2.05
2018-04-10T12:33:20.713Z,1.95
2018-04-10T12:35:48.723Z,2.03
2018-04-10T12:38:16.729Z,1.80
2018-04-10T12:40:44.775Z,1.60
2018-04-10T12:43:12.779Z,1.45
2018-04-10T12:45:42.325Z,1.50
2018-04-10T12:48:10.355Z,1.73
2018-04-10T12:50:38.381Z,1.70
2018-04-10T12:53:06.378Z,1.70
2018-04-10T12:55:34.379Z,1.62
2018-04-10T12:58:02.404Z,1.58
2018-04-10T13:00:30.409Z,1.90
2018-04-10T13:02:58.432Z,1.80
2018-04-10T13:05:26.472Z,1.52
2018-04-10T13:07:54.482Z,1.83
2018-04-10T13:10:22.500Z,1.70
2018-04-10T13:12:50.518Z,1.65
2018-04-10T13:15:18.562Z,1.83
2018-04-10T13:17:46.582Z,1.87
2018-04-10T13:20:14.578Z,2.25
2018-04-10T13:22:42.615Z,2.42
2018-04-10T13:25:10.699Z,2.00
2018-04-10T13:27:38.727Z,1.73
2018-04-10T13:30:06.747Z,1.90
2018-04-10T13:32:35.602Z,1.90
2018-04-10T13:35:03.662Z,1.95
2018-04-10T13:37:32.461Z,1.70
2018-04-10T13:40:00.469Z,1.60
2018-04-10T13:42:28.501Z,1.90
2018-04-10T13:44:56.511Z,1.55
2018-04-10T13:47:24.575Z,2.10
2018-04-10T13:49:52.599Z,1.90
2018-04-10T13:52:20.633Z,1.62
2018-04-10T13:54:48.641Z,1.80
2018-04-10T13:57:16.661Z,1.95
2018-04-10T13:59:44.703Z,1.77
2018-04-10T14:02:12.724Z,2.15
2018-04-10T14:04:40.717Z,1.83
2018-04-10T14:07:08.731Z,1.60
2018-04-10T14:09:36.751Z,1.75
2018-04-10T14:12:05.564Z,1.60
2018-04-10T14:14:33.576Z,1.80
2018-04-10T14:17:01.579Z,1.50
2018-04-10T14:19:29.605Z,1.95
2018-04-10T14:21:58.380Z,1.50
2018-04-10T14:24:26.451Z,1.25
2018-04-10T14:26:54.491Z,1.20
2018-04-10T14:29:22.503Z,1.25
2018-04-10T14:31:50.547Z,1.30
2018-04-10T14:34:18.593Z,1.30
2018-04-10T14:36:46.637Z,1.40
2018-04-10T14:39:14.649Z,1.30
2018-04-10T14:41:42.662Z,1.40
2018-04-10T14:44:10.691Z,1.40
2018-04-10T14:46:39.499Z,1.50
2018-04-10T14:49:07.548Z,1.40
2018-04-10T14:51:35.591Z,1.50
2018-04-10T14:54:03.594Z,1.52
2018-04-10T14:56:31.615Z,1.50
2018-04-10T14:58:59.601Z,1.70
2018-04-10T15:01:27.639Z,1.60
2018-04-10T15:03:56.407Z,1.60
2018-04-10T15:06:24.452Z,1.70
2018-04-10T15:08:52.478Z,1.62
2018-04-10T15:11:20.504Z,1.87
2018-04-10T15:13:48.581Z,1.52
2018-04-10T15:16:16.772Z,1.58
2018-04-10T15:18:44.825Z,1.60
2018-04-10T15:21:12.850Z,1.67
2018-04-10T15:23:40.885Z,1.75
2018-04-10T15:26:09.332Z,1.60
2018-04-10T15:28:37.361Z,1.73
2018-04-10T15:31:05.387Z,1.50
2018-04-10T15:33:33.399Z,1.87
2018-04-10T15:36:01.429Z,1.45
2018-04-10T15:38:29.503Z,2.03
2018-04-10T15:40:57.578Z,1.55
2018-04-10T15:43:25.591Z,1.75
2018-04-10T15:45:53.604Z,2.10
2018-04-10T15:48:21.599Z,1.90
2018-04-10T15:50:49.660Z,1.95
2018-04-10T15:53:17.685Z,1.58
2018-04-10T15:55:45.774Z,1.85
2018-04-10T15:58:13.836Z,2.00
2018-04-10T16:00:41.844Z,2.05
2018-04-10T16:03:09.870Z,1.90
2018-04-10T16:05:37.939Z,1.90
2018-04-10T16:08:05.951Z,1.90
2018-04-10T16:10:33.998Z,1.90
2018-04-10T16:13:02.005Z,1.92
2018-04-10T16:15:30.094Z,1.65
2018-04-10T16:17:58.066Z,1.80
2018-04-10T16:20:26.858Z,1.90
2018-04-10T16:22:54.869Z,2.05
2018-04-10T16:25:22.888Z,3.10
2018-04-10T16:27:50.940Z,3.10
2018-04-10T16:30:18.979Z,2.87
2018-04-10T16:32:47.020Z,2.58
2018-04-10T16:35:15.010Z,2.30
2018-04-10T16:37:43.059Z,2.40
2018-04-10T16:40:11.130Z,2.20
2018-04-10T16:42:39.311Z,2.00
2018-04-10T16:45:07.324Z,1.98
2018-04-10T16:47:35.352Z,2.00
2018-04-10T16:50:04.123Z,1.90
2018-04-10T16:52:32.185Z,1.83
2018-04-10T16:55:00.305Z,1.70
2018-04-10T16:57:28.324Z,2.70
2018-04-10T16:59:56.327Z,3.30
2018-04-10T17:02:25.163Z,2.60
2018-04-10T17:04:53.196Z,2.30
2018-04-10T17:07:21.221Z,2.12
2018-04-10T17:09:50.038Z,2.58
2018-04-10T17:12:18.061Z,3.00
2018-04-10T17:14:46.085Z,2.35
2018-04-10T17:17:14.936Z,2.70
2018-04-10T17:19:42.961Z,2.47
2018-04-10T17:22:11.741Z,1.90
2018-04-10T17:24:39.797Z,3.50
2018-04-10T17:27:07.833Z,3.40
2018-04-10T17:29:35.870Z,3.47
2018-04-10T17:32:03.898Z,3.20
2018-04-10T17:34:32.710Z,2.70
2018-04-10T17:37:00.704Z,3.37
2018-04-10T17:39:28.750Z,4.10
2018-04-10T17:41:56.803Z,3.15
2018-04-10T17:44:24.845Z,2.65
2018-04-10T17:46:52.921Z,2.78
2018-04-10T17:49:20.921Z,2.80
2018-04-10T17:51:48.974Z,2.08
2018-04-10T17:54:17.023Z,2.80
2018-04-10T17:56:45.024Z,2.75
2018-04-10T17:59:13.120Z,2.75
2018-04-10T18:01:41.142Z,2.92
2018-04-10T18:04:09.162Z,3.22
2018-04-10T18:06:37.215Z,2.75
2018-04-10T18:09:05.217Z,1.80
2018-04-10T18:11:33.237Z,2.45
2018-04-10T18:14:01.239Z,1.80
2018-04-10T18:16:29.263Z,1.70
2018-04-10T18:18:57.314Z,1.98
2018-04-10T18:21:25.346Z,2.33
2018-04-10T18:23:53.390Z,1.67
2018-04-10T18:26:21.448Z,1.48
2018-04-10T18:28:49.690Z,1.58
2018-04-10T18:31:17.740Z,1.30
2018-04-10T18:33:47.322Z,1.62
2018-04-10T18:36:15.374Z,1.55
2018-04-10T18:38:44.292Z,1.48
2018-04-10T18:41:12.356Z,2.08
2018-04-10T18:43:40.430Z,1.87
2018-04-10T18:46:08.433Z,1.75
2018-04-10T18:48:36.455Z,1.60
2018-04-10T18:51:04.487Z,1.23
2018-04-10T18:53:32.512Z,1.45
2018-04-10T18:56:00.623Z,1.40
2018-04-10T18:58:28.643Z,1.40
2018-04-10T19:00:56.679Z,1.20
2018-04-10T19:03:24.698Z,1.17
2018-04-10T19:05:52.720Z,1.40
2018-04-10T19:08:21.541Z,1.27
2018-04-10T19:10:49.547Z,1.40
2018-04-10T19:13:17.552Z,1.15
2018-04-10T19:15:46.358Z,1.30
2018-04-10T19:18:15.245Z,1.50
2018-04-10T19:20:43.289Z,1.50
2018-04-10T19:23:12.099Z,1.40
2018-04-10T19:25:40.878Z,1.48
2018-04-10T19:28:08.890Z,1.48
2018-04-10T19:30:37.708Z,1.52
2018-04-10T19:33:06.676Z,1.30
2018-04-10T19:35:34.734Z,1.25
2018-04-10T19:38:02.790Z,1.17
2018-04-10T19:40:31.596Z,1.20
2018-04-10T19:42:59.615Z,1.12
2018-04-10T19:45:27.744Z,1.27
2018-04-10T19:47:56.502Z,1.33
2018-04-10T19:50:24.613Z,1.33
2018-04-10T19:52:53.406Z,1.42
2018-04-10T19:55:21.431Z,1.50
2018-04-10T19:57:49.486Z,1.23
2018-04-10T20:00:17.513Z,1.58
2018-04-10T20:02:45.575Z,1.60
2018-04-10T20:05:13.620Z,1.42
2018-04-10T20:07:41.635Z,2.33
2018-04-10T20:10:09.715Z,2.05
2018-04-10T20:12:37.784Z,1.85
2018-04-10T20:15:05.805Z,1.70
2018-04-10T20:17:33.857Z,1.70
2018-04-10T20:20:01.867Z,1.58
2018-04-10T20:22:29.959Z,1.40
2018-04-10T20:24:57.998Z,1.30
2018-04-10T20:27:26.801Z,1.48
2018-04-10T20:29:55.049Z,2.10
2018-04-10T20:32:23.068Z,1.73
2018-04-10T20:34:51.090Z,1.42
2018-04-10T20:37:19.383Z,1.30
2018-04-10T20:39:48.192Z,1.30
2018-04-10T20:42:16.221Z,1.40
2018-04-10T20:44:44.266Z,1.30
2018-04-10T20:47:12.301Z,1.10
2018-04-10T20:49:40.343Z,1.67
2018-04-10T20:52:08.359Z,1.58
2018-04-10T20:54:36.381Z,1.62
2018-04-10T20:57:04.426Z,1.80
2018-04-10T20:59:32.452Z,1.33
2018-04-10T21:02:00.476Z,1.92
2018-04-10T21:04:28.501Z,1.62
2018-04-10T21:06:58.014Z,1.40
2018-04-10T21:09:26.083Z,1.50
2018-04-10T21:11:54.085Z,2.12
2018-04-10T21:14:22.907Z,1.62
2018-04-10T21:16:50.985Z,2.00
2018-04-10T21:19:19.386Z,1.58
2018-04-10T21:21:48.909Z,1.62
2018-04-10T21:24:16.921Z,0.95
2018-04-10T21:26:44.971Z,1.30
2018-04-10T21:29:13.002Z,1.55
2018-04-10T21:31:41.029Z,1.30
2018-04-10T21:34:09.051Z,1.42
2018-04-10T21:36:37.071Z,1.60
2018-04-10T21:39:05.156Z,1.52
2018-04-10T21:41:33.532Z,1.33
2018-04-10T21:44:01.539Z,1.30
2018-04-10T21:46:29.552Z,1.30
2018-04-10T21:48:57.589Z,1.30
2018-04-10T21:51:25.626Z,1.50
2018-04-10T21:53:53.630Z,1.23
2018-04-10T21:56:21.669Z,1.45
2018-04-10T21:58:49.708Z,1.30
2018-04-10T22:01:17.726Z,1.40
2018-04-10T22:03:45.758Z,1.73
2018-04-10T22:06:13.766Z,1.48
2018-04-10T22:08:41.794Z,1.37
2018-04-10T22:11:09.835Z,1.42
2018-04-10T22:13:37.850Z,1.50
2018-04-10T22:16:05.892Z,1.40
2018-04-10T22:18:33.922Z,1.60
2018-04-10T22:21:01.946Z,1.20
2018-04-10T22:23:29.958Z,1.33
2018-04-10T22:25:58.338Z,1.30
2018-04-10T22:28:26.393Z,1.42
2018-04-10T22:30:54.439Z,1.42
2018-04-10T22:33:23.260Z,1.65
2018-04-10T22:35:51.266Z,1.62
2018-04-10T22:38:19.273Z,1.50
2018-04-10T22:40:47.316Z,1.52
2018-04-10T22:43:15.341Z,1.60
2018-04-10T22:45:43.441Z,1.35
2018-04-10T22:48:11.459Z,1.37
2018-04-10T22:50:39.520Z,1.40
2018-04-10T22:53:07.572Z,1.40
2018-04-10T22:55:35.589Z,1.50
2018-04-10T22:58:03.593Z,1.20
2018-04-10T23:00:31.607Z,1.30
2018-04-10T23:02:59.607Z,1.70
2018-04-10T23:05:27.700Z,1.50
2018-04-10T23:07:55.698Z,1.73
2018-04-10T23:10:23.696Z,1.50
2018-04-10T23:12:51.717Z,1.50
2018-04-10T23:15:19.781Z,1.30
2018-04-10T23:17:47.802Z,1.40
2018-04-10T23:20:16.189Z,1.60
2018-04-10T23:22:44.202Z,1.37
2018-04-10T23:25:12.203Z,1.27
2018-04-10T23:27:40.214Z,1.40
2018-04-10T23:30:08.260Z,1.30
2018-04-10T23:32:36.271Z,1.42
2018-04-10T23:35:04.279Z,1.25
2018-04-10T23:37:32.301Z,1.70
2018-04-10T23:40:00.325Z,1.52
2018-04-10T23:42:28.413Z,1.33
2018-04-10T23:44:56.420Z,1.40
2018-04-10T23:47:24.445Z,1.37
2018-04-10T23:49:52.465Z,1.20
2018-04-10T23:52:20.477Z,1.40
2018-04-10T23:54:48.577Z,1.50
2018-04-10T23:57:16.587Z,1.40
2018-04-10T23:59:44.591Z,1.55
